createdAt,value
2023-07-25T00:00:13.656Z,2.55
2023-07-25T00:02:39.973Z,5.00
2023-07-25T00:05:06.579Z,2.00
2023-07-25T00:07:32.908Z,1.83
2023-07-25T00:09:59.429Z,2.08
2023-07-25T00:12:25.850Z,2.03
2023-07-25T00:14:52.147Z,2.20
2023-07-25T00:17:18.491Z,2.10
2023-07-25T00:19:44.850Z,2.13
2023-07-25T00:22:11.808Z,2.13
2023-07-25T00:24:38.262Z,2.03
2023-07-25T00:27:04.713Z,2.05
2023-07-25T00:29:31.112Z,1.80
2023-07-25T00:31:57.507Z,1.77
2023-07-25T00:34:23.893Z,1.65
2023-07-25T00:36:51.122Z,1.80
2023-07-25T00:39:17.472Z,1.70
2023-07-25T00:41:43.831Z,1.90
2023-07-25T00:44:10.305Z,2.17
2023-07-25T00:46:36.694Z,1.83
2023-07-25T00:49:05.202Z,2.03
2023-07-25T00:51:32.834Z,1.90
2023-07-25T00:53:59.510Z,1.98
2023-07-25T00:56:26.829Z,1.70
2023-07-25T00:58:53.226Z,1.98
2023-07-25T01:01:19.694Z,1.77
2023-07-25T01:03:46.248Z,1.42
2023-07-25T01:06:13.339Z,1.70
2023-07-25T01:08:49.783Z,1.83
2023-07-25T01:11:16.295Z,1.83
2023-07-25T01:13:42.855Z,1.88
2023-07-25T01:16:10.594Z,1.80
2023-07-25T01:18:37.456Z,2.13
2023-07-25T01:21:04.440Z,1.85
2023-07-25T01:23:31.610Z,1.83
2023-07-25T01:25:58.197Z,1.90
2023-07-25T01:28:24.879Z,1.80
2023-07-25T01:30:51.283Z,1.90
2023-07-25T01:33:17.892Z,2.15
2023-07-25T01:35:44.542Z,2.08
2023-07-25T01:38:11.199Z,2.00
2023-07-25T01:40:40.605Z,1.90
2023-07-25T01:43:07.263Z,2.10
2023-07-25T01:45:34.121Z,2.08
2023-07-25T01:48:00.916Z,2.40
2023-07-25T01:50:28.057Z,2.28
2023-07-25T01:52:54.829Z,2.13
2023-07-25T01:55:21.822Z,2.35
2023-07-25T01:57:48.471Z,2.60
2023-07-25T02:00:15.264Z,2.72
2023-07-25T02:02:41.861Z,2.80
2023-07-25T02:05:08.595Z,3.08
2023-07-25T02:07:35.504Z,2.97
2023-07-25T02:10:02.147Z,2.90
2023-07-25T02:12:30.277Z,3.00
2023-07-25T02:14:57.162Z,3.80
2023-07-25T02:17:23.902Z,4.15
2023-07-25T02:19:50.392Z,4.43
2023-07-25T02:22:17.172Z,4.10
2023-07-25T02:24:43.968Z,4.57
2023-07-25T02:27:10.812Z,4.82
2023-07-25T02:29:37.561Z,4.70
2023-07-25T02:32:04.389Z,4.90
2023-07-25T02:34:30.782Z,4.82
2023-07-25T02:36:57.579Z,5.32
2023-07-25T02:39:24.103Z,5.80
2023-07-25T02:41:50.732Z,5.45
2023-07-25T02:44:17.324Z,5.40
2023-07-25T02:46:44.176Z,6.05
2023-07-25T02:49:10.866Z,6.93
2023-07-25T02:51:37.554Z,6.28
2023-07-25T02:54:04.166Z,6.88
2023-07-25T02:56:30.863Z,6.65
2023-07-25T02:58:57.513Z,6.00
2023-07-25T03:01:24.244Z,5.85
2023-07-25T03:03:52.136Z,6.35
2023-07-25T03:06:18.791Z,6.28
2023-07-25T03:08:45.380Z,5.63
2023-07-25T03:11:12.991Z,5.93
2023-07-25T03:13:39.453Z,5.93
2023-07-25T03:16:06.148Z,5.95
2023-07-25T03:18:32.583Z,5.95
2023-07-25T03:20:59.185Z,6.10
2023-07-25T03:23:25.582Z,6.45
2023-07-25T03:25:52.098Z,6.28
2023-07-25T03:28:18.795Z,6.72
2023-07-25T03:30:45.667Z,6.00
2023-07-25T03:33:12.173Z,5.75
2023-07-25T03:35:39.079Z,5.88
2023-07-25T03:38:05.829Z,6.20
2023-07-25T03:40:32.435Z,6.47
2023-07-25T03:42:58.991Z,6.35
2023-07-25T03:45:25.450Z,7.05
2023-07-25T03:47:52.194Z,6.75
2023-07-25T03:50:18.633Z,6.20
2023-07-25T03:52:45.250Z,7.22
2023-07-25T03:55:11.846Z,6.90
2023-07-25T03:57:38.461Z,6.97
2023-07-25T04:00:06.093Z,7.53
2023-07-25T04:02:39.412Z,7.05
2023-07-25T04:05:06.321Z,6.53
2023-07-25T04:07:32.727Z,7.00
2023-07-25T04:09:59.380Z,7.57
2023-07-25T04:12:25.831Z,7.35
2023-07-25T04:14:52.278Z,8.05
2023-07-25T04:17:18.906Z,7.10
2023-07-25T04:19:45.300Z,8.93
2023-07-25T04:22:12.074Z,8.32
2023-07-25T04:24:38.788Z,7.55
2023-07-25T04:27:05.668Z,8.57
2023-07-25T04:29:32.261Z,8.90
2023-07-25T04:31:58.940Z,8.10
2023-07-25T04:34:25.478Z,7.88
2023-07-25T04:36:52.087Z,6.68
2023-07-25T04:39:20.019Z,6.25
2023-07-25T04:41:46.638Z,6.00
2023-07-25T04:44:13.225Z,5.65
2023-07-25T04:46:39.889Z,5.50
2023-07-25T04:49:07.963Z,5.25
2023-07-25T04:51:34.684Z,5.80
2023-07-25T04:54:01.588Z,6.70
2023-07-25T04:56:28.188Z,6.53
2023-07-25T04:58:55.158Z,6.05
2023-07-25T05:01:23.344Z,5.40
2023-07-25T05:03:49.853Z,4.78
2023-07-25T05:06:16.502Z,4.57
2023-07-25T05:08:43.129Z,4.40
2023-07-25T05:11:09.841Z,4.20
2023-07-25T05:13:37.612Z,4.00
2023-07-25T05:16:09.290Z,4.88
2023-07-25T05:18:39.179Z,3.90
2023-07-25T05:21:05.835Z,4.40
2023-07-25T05:23:32.681Z,4.93
2023-07-25T05:25:59.304Z,4.53
2023-07-25T05:28:25.814Z,4.95
2023-07-25T05:30:54.771Z,5.65
2023-07-25T05:33:23.706Z,6.55
2023-07-25T05:38:15.306Z,4.72
2023-07-25T05:40:41.682Z,4.55
2023-07-25T05:43:08.064Z,4.45
2023-07-25T05:45:34.438Z,4.60
2023-07-25T05:48:00.831Z,4.28
2023-07-25T05:50:37.495Z,4.70
2023-07-25T05:53:04.164Z,4.10
2023-07-25T05:55:30.753Z,5.28
2023-07-25T05:57:57.163Z,7.05
2023-07-25T06:00:23.743Z,5.93
2023-07-25T06:02:50.408Z,6.13
2023-07-25T06:05:17.088Z,5.97
2023-07-25T06:07:43.484Z,6.47
2023-07-25T06:10:10.256Z,6.82
2023-07-25T06:12:37.010Z,7.30
2023-07-25T06:15:03.866Z,6.70
2023-07-25T06:17:30.471Z,10.25
2023-07-25T06:19:57.165Z,8.55
2023-07-25T06:22:23.740Z,10.25
2023-07-25T06:24:50.292Z,8.65
2023-07-25T06:27:16.909Z,10.00
2023-07-25T06:29:43.387Z,14.30
2023-07-25T06:32:09.952Z,15.45
2023-07-25T06:34:36.384Z,16.60
2023-07-25T06:37:03.029Z,16.70
2023-07-25T06:39:29.747Z,16.05
2023-07-25T06:41:56.347Z,16.80
2023-07-25T06:44:23.135Z,15.73
2023-07-25T06:46:49.817Z,16.65
2023-07-25T06:49:16.607Z,16.50
2023-07-25T06:51:43.109Z,17.23
2023-07-25T06:54:09.690Z,16.35
2023-07-25T06:56:36.303Z,14.30
2023-07-25T06:59:02.745Z,16.42
2023-07-25T07:01:30.022Z,15.23
2023-07-25T07:03:56.945Z,14.25
2023-07-25T07:06:23.460Z,15.25
2023-07-25T07:08:50.188Z,15.32
2023-07-25T07:11:16.840Z,14.52
2023-07-25T07:13:43.221Z,15.10
2023-07-25T07:16:10.764Z,15.45
2023-07-25T07:18:37.639Z,17.10
2023-07-25T07:21:04.423Z,14.95
2023-07-25T07:23:31.134Z,15.02
2023-07-25T07:25:57.586Z,14.48
2023-07-25T07:28:24.185Z,14.95
2023-07-25T07:30:51.342Z,14.77
2023-07-25T07:33:18.414Z,13.35
2023-07-25T07:35:44.952Z,11.48
2023-07-25T07:38:11.404Z,11.02
2023-07-25T07:40:38.615Z,10.50
2023-07-25T07:43:05.098Z,9.43
2023-07-25T07:45:31.974Z,9.02
2023-07-25T07:47:58.612Z,9.13
2023-07-25T07:50:25.429Z,9.27
2023-07-25T07:52:52.072Z,8.32
2023-07-25T07:55:19.698Z,7.53
2023-07-25T07:57:46.992Z,7.93
2023-07-25T08:00:15.028Z,7.20
2023-07-25T08:02:41.936Z,7.10
2023-07-25T08:05:08.878Z,6.40
2023-07-25T08:07:35.861Z,6.47
2023-07-25T08:10:04.338Z,6.82
2023-07-25T08:12:30.887Z,6.57
2023-07-25T08:14:57.837Z,7.63
2023-07-25T08:17:24.609Z,6.75
2023-07-25T08:19:51.519Z,6.13
2023-07-25T08:22:18.193Z,6.18
2023-07-25T08:24:44.789Z,6.15
2023-07-25T08:27:11.342Z,5.70
2023-07-25T08:29:41.591Z,5.78
2023-07-25T08:32:09.762Z,5.78
2023-07-25T08:34:37.607Z,5.78
2023-07-25T08:37:04.532Z,5.05
2023-07-25T08:39:31.198Z,4.90
2023-07-25T08:41:58.745Z,4.93
2023-07-25T08:44:26.717Z,4.72
2023-07-25T08:46:54.206Z,4.85
2023-07-25T08:49:24.882Z,5.18
2023-07-25T08:51:54.941Z,4.57
2023-07-25T08:54:28.726Z,4.47
2023-07-25T08:56:55.577Z,4.13
2023-07-25T08:59:22.314Z,4.57
2023-07-25T09:01:49.304Z,4.82
2023-07-25T09:04:16.077Z,4.80
2023-07-25T09:06:42.812Z,4.57
2023-07-25T09:09:09.747Z,4.95
2023-07-25T09:11:36.526Z,4.78
2023-07-25T09:14:02.968Z,4.78
2023-07-25T09:16:30.545Z,4.55
2023-07-25T09:18:57.381Z,3.83
2023-07-25T09:21:23.904Z,3.65
2023-07-25T09:23:54.675Z,3.63
2023-07-25T09:26:22.659Z,3.10
2023-07-25T09:28:52.384Z,2.60
2023-07-25T09:31:23.528Z,2.70
2023-07-25T09:33:51.771Z,2.40
2023-07-25T09:36:22.336Z,2.80
2023-07-25T09:38:54.934Z,2.67
2023-07-25T09:41:25.426Z,2.22
2023-07-25T09:43:53.825Z,2.50
2023-07-25T09:46:20.729Z,2.15
2023-07-25T09:48:49.631Z,2.17
2023-07-25T09:51:16.873Z,1.90
2023-07-25T09:53:44.202Z,1.70
2023-07-25T09:56:11.628Z,1.90
2023-07-25T09:58:44.619Z,2.03
2023-07-25T10:01:18.506Z,1.52
2023-07-25T10:03:48.566Z,1.08
2023-07-25T10:06:19.115Z,1.33
2023-07-25T10:08:46.025Z,1.58
2023-07-25T10:11:14.166Z,1.60
2023-07-25T10:13:44.609Z,1.30
2023-07-25T10:16:15.846Z,1.55
2023-07-25T10:18:43.386Z,1.50
2023-07-25T10:21:11.453Z,1.63
2023-07-25T10:23:39.387Z,1.60
2023-07-25T10:26:13.696Z,2.47
2023-07-25T10:28:54.034Z,1.60
2023-07-25T10:31:25.157Z,1.65
2023-07-25T10:33:54.325Z,1.50
2023-07-25T10:36:24.535Z,1.70
2023-07-25T10:38:51.716Z,1.60
2023-07-25T10:41:18.301Z,1.95
2023-07-25T10:43:53.272Z,2.05
2023-07-25T10:46:20.635Z,1.90
2023-07-25T10:48:50.882Z,1.70
2023-07-25T10:51:18.712Z,1.92
2023-07-25T10:54:03.882Z,2.13
2023-07-25T10:56:30.436Z,2.03
2023-07-25T10:59:13.264Z,2.03
2023-07-25T11:01:49.709Z,2.05
2023-07-25T11:04:22.391Z,2.15
2023-07-25T11:06:50.444Z,1.88
2023-07-25T11:09:17.265Z,1.95
2023-07-25T11:11:47.664Z,1.92
2023-07-25T11:14:16.400Z,2.08
2023-07-25T11:16:43.843Z,1.90
2023-07-25T11:19:15.430Z,2.15
2023-07-25T11:21:42.907Z,1.90
2023-07-25T11:24:10.230Z,1.85
2023-07-25T11:26:38.361Z,1.83
2023-07-25T11:29:05.872Z,1.88
2023-07-25T11:31:32.696Z,1.83
2023-07-25T11:34:11.133Z,2.50
2023-07-25T11:36:38.967Z,1.85
2023-07-25T11:39:06.154Z,2.25
2023-07-25T11:41:34.019Z,2.20
2023-07-25T11:44:00.916Z,2.00
2023-07-25T11:46:28.650Z,1.90
2023-07-25T11:48:55.479Z,1.70
2023-07-25T11:51:22.879Z,2.10
2023-07-25T11:53:49.725Z,1.95
2023-07-25T11:56:16.439Z,1.90
2023-07-25T11:58:47.807Z,2.22
2023-07-25T12:01:14.349Z,2.10
2023-07-25T12:03:46.811Z,2.08
2023-07-25T12:06:13.471Z,1.90
2023-07-25T12:08:44.344Z,2.00
2023-07-25T12:11:15.279Z,1.80
2023-07-25T12:13:48.950Z,1.90
2023-07-25T12:16:24.536Z,1.92
2023-07-25T12:18:56.362Z,1.88
2023-07-25T12:21:33.719Z,1.75
2023-07-25T12:24:03.574Z,2.20
2023-07-25T12:26:30.536Z,5.43
2023-07-25T12:28:57.367Z,2.55
2023-07-25T12:31:24.653Z,2.22
2023-07-25T12:33:52.106Z,2.75
2023-07-25T12:36:19.688Z,2.20
2023-07-25T12:38:47.948Z,2.33
2023-07-25T12:41:15.395Z,3.22
2023-07-25T12:43:42.111Z,2.40
2023-07-25T12:46:09.119Z,3.38
2023-07-25T12:48:35.701Z,2.90
2023-07-25T12:51:02.217Z,2.90
2023-07-25T12:53:29.039Z,3.03
2023-07-25T12:55:55.774Z,3.03
2023-07-25T12:58:22.336Z,2.80
2023-07-25T13:00:49.105Z,2.53
2023-07-25T13:03:15.823Z,2.80
2023-07-25T13:05:44.100Z,2.45
2023-07-25T13:08:10.727Z,2.80
2023-07-25T13:10:37.405Z,2.75
2023-07-25T13:13:03.798Z,3.05
2023-07-25T13:15:32.062Z,2.40
2023-07-25T13:17:58.700Z,2.70
2023-07-25T13:20:25.319Z,2.90
2023-07-25T13:22:53.294Z,3.08
2023-07-25T13:25:20.432Z,2.90
2023-07-25T13:27:46.794Z,3.00
2023-07-25T13:30:13.504Z,2.90
2023-07-25T13:32:41.306Z,3.22
2023-07-25T13:35:08.370Z,3.08
2023-07-25T13:37:34.865Z,2.95
2023-07-25T13:40:01.408Z,3.10
2023-07-25T13:42:28.237Z,2.85
2023-07-25T13:44:54.971Z,3.10
2023-07-25T13:47:21.555Z,2.75
2023-07-25T13:49:48.620Z,2.78
2023-07-25T13:52:15.375Z,2.80
2023-07-25T13:54:41.942Z,2.85
2023-07-25T13:57:10.868Z,2.90
2023-07-25T13:59:37.698Z,2.60
2023-07-25T14:02:04.498Z,2.40
2023-07-25T14:04:32.467Z,2.00
2023-07-25T14:06:58.871Z,2.17
2023-07-25T14:09:26.093Z,2.40
2023-07-25T14:11:52.712Z,2.38
2023-07-25T14:14:19.353Z,1.90
2023-07-25T14:16:45.805Z,2.13
2023-07-25T14:19:12.479Z,2.22
2023-07-25T14:21:39.358Z,2.40
2023-07-25T14:24:06.737Z,2.00
2023-07-25T14:26:36.584Z,2.22
2023-07-25T14:29:04.984Z,2.10
2023-07-25T14:31:31.570Z,2.10
2023-07-25T14:34:01.404Z,1.90
2023-07-25T14:36:28.200Z,1.92
2023-07-25T14:38:54.954Z,1.60
2023-07-25T14:41:21.688Z,1.58
2023-07-25T14:43:50.386Z,1.70
2023-07-25T14:46:18.420Z,1.55
2023-07-25T14:48:45.090Z,1.75
2023-07-25T14:51:11.767Z,1.63
2023-07-25T14:53:38.407Z,1.95
2023-07-25T14:56:05.139Z,1.67
2023-07-25T14:58:31.801Z,1.60
2023-07-25T15:00:58.559Z,1.75
2023-07-25T15:03:25.299Z,1.70
2023-07-25T15:05:51.930Z,1.70
2023-07-25T15:08:18.711Z,1.70
2023-07-25T15:10:45.530Z,1.80
2023-07-25T15:13:11.966Z,1.90
2023-07-25T15:15:38.577Z,1.50
2023-07-25T15:18:05.409Z,1.65
2023-07-25T15:20:31.978Z,1.67
2023-07-25T15:22:58.745Z,1.67
2023-07-25T15:25:27.034Z,1.60
2023-07-25T15:27:55.438Z,1.70
2023-07-25T15:30:22.748Z,1.50
2023-07-25T15:32:49.309Z,1.52
2023-07-25T15:35:16.135Z,1.77
2023-07-25T15:37:42.903Z,1.60
2023-07-25T15:40:11.261Z,1.70
2023-07-25T15:42:37.739Z,1.67
2023-07-25T15:45:04.745Z,1.80
2023-07-25T15:47:31.385Z,1.70
2023-07-25T15:49:57.864Z,1.67
2023-07-25T15:52:24.454Z,1.98
2023-07-25T15:54:50.811Z,1.73
2023-07-25T15:57:17.576Z,1.58
2023-07-25T15:59:44.231Z,1.80
2023-07-25T16:02:12.656Z,1.90
2023-07-25T16:04:39.531Z,1.80
2023-07-25T16:07:06.403Z,2.00
2023-07-25T16:09:32.923Z,1.80
2023-07-25T16:11:59.535Z,2.00
2023-07-25T16:14:26.828Z,2.00
2023-07-25T16:16:53.520Z,2.22
2023-07-25T16:19:20.071Z,1.70
2023-07-25T16:21:46.535Z,1.85
2023-07-25T16:24:13.286Z,2.25
2023-07-25T16:26:39.655Z,2.28
2023-07-25T16:29:06.424Z,1.80
2023-07-25T16:31:33.607Z,1.85
2023-07-25T16:34:00.673Z,1.77
2023-07-25T16:36:27.261Z,1.83
2023-07-25T16:38:54.477Z,2.35
2023-07-25T16:41:21.301Z,2.17
2023-07-25T16:43:47.981Z,2.38
2023-07-25T16:46:15.055Z,2.03
2023-07-25T16:48:41.842Z,2.33
2023-07-25T16:51:08.623Z,2.15
2023-07-25T16:53:35.243Z,2.20
2023-07-25T16:56:01.968Z,2.20
2023-07-25T16:58:29.006Z,2.28
2023-07-25T17:00:56.901Z,2.05
2023-07-25T17:03:24.174Z,2.17
2023-07-25T17:05:50.952Z,2.20
2023-07-25T17:08:18.956Z,2.28
2023-07-25T17:10:45.331Z,2.20
2023-07-25T17:13:21.185Z,2.33
2023-07-25T17:15:48.005Z,2.53
2023-07-25T17:18:14.808Z,2.60
2023-07-25T17:20:41.385Z,2.63
2023-07-25T17:23:08.248Z,2.35
2023-07-25T17:25:37.608Z,2.50
2023-07-25T17:28:04.378Z,2.30
2023-07-25T17:30:30.724Z,2.65
2023-07-25T17:32:59.205Z,2.45
2023-07-25T17:35:36.737Z,2.78
2023-07-25T17:38:04.436Z,2.40
2023-07-25T17:40:30.931Z,2.70
2023-07-25T17:42:57.378Z,2.22
2023-07-25T17:45:24.086Z,2.60
2023-07-25T17:47:51.520Z,2.70
2023-07-25T17:50:18.635Z,2.65
2023-07-25T17:52:45.408Z,2.60
2023-07-25T17:55:12.005Z,2.80
2023-07-25T17:57:38.621Z,2.30
2023-07-25T18:00:05.649Z,2.55
2023-07-25T18:02:38.976Z,2.58
2023-07-25T18:05:05.823Z,2.35
2023-07-25T18:07:32.587Z,2.20
2023-07-25T18:09:59.297Z,2.50
2023-07-25T18:12:25.900Z,2.40
2023-07-25T18:14:53.424Z,2.17
2023-07-25T18:17:20.242Z,2.10
2023-07-25T18:19:46.912Z,2.00
2023-07-25T18:22:13.308Z,2.30
2023-07-25T18:24:39.987Z,2.10
2023-07-25T18:27:06.701Z,1.67
2023-07-25T18:29:33.286Z,2.63
2023-07-25T18:31:59.883Z,2.15
2023-07-25T18:34:26.470Z,2.17
2023-07-25T18:36:53.107Z,2.08
2023-07-25T18:39:19.517Z,1.88
2023-07-25T18:41:46.065Z,2.08
2023-07-25T18:44:12.645Z,2.22
2023-07-25T18:46:39.276Z,1.95
2023-07-25T18:49:05.749Z,2.45
2023-07-25T18:51:32.348Z,2.13
2023-07-25T18:53:58.986Z,1.70
2023-07-25T18:56:25.703Z,1.80
2023-07-25T18:58:52.192Z,1.85
2023-07-25T19:01:19.654Z,1.73
2023-07-25T19:03:46.365Z,2.10
2023-07-25T19:06:13.067Z,1.65
2023-07-25T19:08:39.910Z,1.90
2023-07-25T19:11:06.627Z,1.83
2023-07-25T19:13:33.154Z,1.63
2023-07-25T19:15:59.762Z,1.70
2023-07-25T19:18:26.257Z,1.67
2023-07-25T19:20:52.778Z,1.60
2023-07-25T19:23:25.839Z,1.60
2023-07-25T19:25:57.435Z,1.55
2023-07-25T19:28:23.795Z,1.50
2023-07-25T19:30:50.274Z,1.90
2023-07-25T19:33:16.791Z,1.77
2023-07-25T19:35:50.505Z,1.45
2023-07-25T19:38:17.098Z,2.10
2023-07-25T19:40:43.724Z,1.70
2023-07-25T19:43:10.316Z,2.00
2023-07-25T19:45:36.846Z,1.80
2023-07-25T19:48:03.628Z,1.50
2023-07-25T19:50:31.117Z,1.80
2023-07-25T19:52:57.495Z,1.60
2023-07-25T19:55:24.018Z,1.80
2023-07-25T19:57:54.437Z,1.88
2023-07-25T20:00:21.191Z,1.92
2023-07-25T20:02:47.647Z,1.70
2023-07-25T20:05:14.093Z,1.90
2023-07-25T20:07:40.934Z,1.58
2023-07-25T20:10:07.515Z,1.70
2023-07-25T20:12:34.148Z,1.77
2023-07-25T20:15:00.675Z,1.70
2023-07-25T20:17:27.118Z,1.95
2023-07-25T20:19:53.598Z,1.90
2023-07-25T20:22:20.678Z,1.80
2023-07-25T20:24:48.319Z,2.00
2023-07-25T20:27:16.806Z,2.05
2023-07-25T20:29:43.844Z,1.80
2023-07-25T20:32:10.374Z,1.80
2023-07-25T20:34:36.991Z,1.77
2023-07-25T20:37:03.542Z,1.92
2023-07-25T20:39:30.626Z,1.70
2023-07-25T20:41:57.059Z,1.90
2023-07-25T20:44:24.186Z,2.00
2023-07-25T20:46:50.898Z,2.10
2023-07-25T20:49:17.957Z,1.95
2023-07-25T20:51:44.716Z,1.90
2023-07-25T20:54:11.547Z,1.85
2023-07-25T20:56:38.810Z,2.22
2023-07-25T20:59:05.465Z,1.98
2023-07-25T21:01:32.197Z,2.13
2023-07-25T21:04:00.391Z,2.15
2023-07-25T21:06:28.277Z,2.22
2023-07-25T21:08:54.699Z,1.90
2023-07-25T21:11:21.371Z,2.30
2023-07-25T21:13:48.984Z,2.20
2023-07-25T21:16:15.412Z,2.20
2023-07-25T21:18:42.052Z,2.28
2023-07-25T21:21:08.626Z,2.90
2023-07-25T21:23:35.399Z,2.25
2023-07-25T21:26:01.833Z,2.33
2023-07-25T21:28:28.388Z,2.25
2023-07-25T21:30:55.077Z,2.28
2023-07-25T21:33:22.261Z,2.22
2023-07-25T21:35:49.862Z,2.30
2023-07-25T21:38:16.455Z,2.40
2023-07-25T21:40:42.845Z,2.40
2023-07-25T21:43:09.392Z,2.17
2023-07-25T21:45:35.773Z,2.50
2023-07-25T21:48:02.186Z,2.38
2023-07-25T21:50:28.937Z,2.28
2023-07-25T21:52:55.613Z,2.53
2023-07-25T21:55:22.573Z,2.40
2023-07-25T21:57:49.133Z,2.17
2023-07-25T22:00:16.886Z,2.60
2023-07-25T22:02:43.518Z,2.40
2023-07-25T22:05:10.003Z,2.15
2023-07-25T22:07:36.868Z,2.50
2023-07-25T22:10:03.652Z,2.70
2023-07-25T22:12:30.296Z,2.92
2023-07-25T22:14:56.945Z,3.65
2023-07-25T22:17:24.079Z,2.42
2023-07-25T22:19:50.662Z,2.20
2023-07-25T22:22:17.118Z,2.72
2023-07-25T22:24:43.889Z,2.70
2023-07-25T22:27:10.530Z,2.70
2023-07-25T22:29:37.133Z,2.30
2023-07-25T22:32:03.727Z,2.42
2023-07-25T22:34:30.390Z,2.53
2023-07-25T22:36:56.975Z,2.67
2023-07-25T22:39:23.431Z,2.25
2023-07-25T22:41:49.800Z,2.75
2023-07-25T22:44:18.151Z,2.17
2023-07-25T22:46:44.908Z,2.92
2023-07-25T22:49:11.534Z,2.40
2023-07-25T22:51:38.118Z,2.60
2023-07-25T22:54:04.813Z,2.30
2023-07-25T22:56:31.522Z,2.60
2023-07-25T22:58:58.375Z,2.22
2023-07-25T23:01:25.396Z,2.45
2023-07-25T23:03:52.087Z,2.50
2023-07-25T23:06:18.841Z,2.88
2023-07-25T23:08:45.432Z,2.80
2023-07-25T23:11:13.015Z,2.67
2023-07-25T23:13:39.587Z,2.35
2023-07-25T23:16:06.216Z,2.30
2023-07-25T23:18:32.760Z,2.05
2023-07-25T23:20:59.148Z,2.33
2023-07-25T23:23:25.797Z,2.47
2023-07-25T23:25:52.248Z,2.72
2023-07-25T23:28:18.957Z,2.30
2023-07-25T23:30:45.646Z,2.40
2023-07-25T23:33:12.309Z,2.85
2023-07-25T23:35:38.944Z,2.60
2023-07-25T23:38:05.565Z,2.47
2023-07-25T23:40:32.406Z,2.40
2023-07-25T23:42:59.152Z,2.92
2023-07-25T23:45:25.694Z,2.20
2023-07-25T23:47:52.276Z,2.78
2023-07-25T23:50:19.034Z,2.42
2023-07-25T23:52:45.676Z,2.55
2023-07-25T23:55:12.100Z,2.58
2023-07-25T23:57:38.763Z,2.35
